createdAt,value
2019-01-24T00:00:35.337Z,99895.00
2019-01-24T00:03:09.342Z,99911.00
2019-01-24T00:05:40.088Z,99906.00
2019-01-24T00:08:10.604Z,99909.00
2019-01-24T00:10:40.982Z,99915.00
2019-01-24T00:13:12.806Z,99917.00
2019-01-24T00:15:43.234Z,99928.00
2019-01-24T00:18:14.638Z,99925.00
2019-01-24T00:20:45.363Z,99930.00
2019-01-24T00:23:17.320Z,99937.00
2019-01-24T00:25:48.118Z,99920.00
2019-01-24T00:28:18.570Z,99937.00
2019-01-24T00:30:51.424Z,99933.00
2019-01-24T00:33:21.859Z,99931.00
2019-01-24T00:35:52.240Z,99933.00
2019-01-24T00:38:22.768Z,99932.00
2019-01-24T00:40:53.534Z,99945.00
2019-01-24T00:43:23.924Z,99936.00
2019-01-24T00:45:54.583Z,99952.00
2019-01-24T00:48:25.126Z,99945.00
2019-01-24T00:50:55.866Z,99952.00
2019-01-24T00:53:26.813Z,99948.00
2019-01-24T00:55:57.938Z,99955.00
2019-01-24T00:58:31.512Z,99951.00
2019-01-24T01:01:02.291Z,99967.00
2019-01-24T01:03:32.730Z,99966.00
2019-01-24T01:06:03.700Z,99958.00
2019-01-24T01:08:34.475Z,99962.00
2019-01-24T01:11:05.469Z,99968.00
2019-01-24T01:13:36.246Z,99940.00
2019-01-24T01:16:06.680Z,99970.00
2019-01-24T01:18:37.252Z,99973.00
2019-01-24T01:21:07.623Z,99972.00
2019-01-24T01:23:38.082Z,99982.00
2019-01-24T01:26:27.730Z,99976.00
2019-01-24T01:28:58.160Z,99986.00
2019-01-24T01:31:28.646Z,99998.00
2019-01-24T01:33:59.668Z,99989.00
2019-01-24T01:36:30.119Z,99995.00
2019-01-24T01:39:00.957Z,99991.00
2019-01-24T01:41:31.820Z,100001.00
2019-01-24T01:44:02.636Z,100007.00
2019-01-24T01:46:33.107Z,100001.00
2019-01-24T01:49:14.815Z,100014.00
2019-01-24T01:51:45.335Z,100027.00
2019-01-24T01:54:15.709Z,100018.00
2019-01-24T01:56:46.334Z,100023.00
2019-01-24T01:59:16.755Z,100026.00
2019-01-24T02:01:49.221Z,100022.00
2019-01-24T02:04:20.007Z,100011.00
2019-01-24T02:06:50.419Z,100023.00
2019-01-24T02:09:20.851Z,100024.00
2019-01-24T02:11:51.331Z,100018.00
2019-01-24T02:14:22.047Z,100011.00
2019-01-24T02:16:52.561Z,100015.00
2019-01-24T02:19:25.186Z,100018.00
2019-01-24T02:21:55.683Z,100014.00
2019-01-24T02:24:26.070Z,100018.00
2019-01-24T02:26:56.523Z,100013.00
2019-01-24T02:29:27.215Z,100001.00
2019-01-24T02:31:57.984Z,100012.00
2019-01-24T02:34:28.787Z,100023.00
2019-01-24T02:36:59.667Z,100003.00
2019-01-24T02:39:30.091Z,100012.00
2019-01-24T02:42:00.535Z,100018.00
2019-01-24T02:44:31.026Z,100027.00
2019-01-24T02:47:01.489Z,100016.00
2019-01-24T02:49:32.042Z,100017.00
2019-01-24T02:52:02.768Z,100026.00
2019-01-24T02:54:33.798Z,100019.00
2019-01-24T02:57:04.299Z,100021.00
2019-01-24T02:59:34.780Z,100037.00
2019-01-24T03:02:07.415Z,100038.00
2019-01-24T03:04:46.999Z,100025.00
2019-01-24T03:07:17.403Z,100039.00
2019-01-24T03:09:47.842Z,100034.00
2019-01-24T03:12:18.208Z,100038.00
2019-01-24T03:14:48.703Z,100041.00
2019-01-24T03:17:19.410Z,100029.00
2019-01-24T03:19:49.883Z,100040.00
2019-01-24T03:22:20.778Z,100034.00
2019-01-24T03:24:51.304Z,100032.00
2019-01-24T03:27:21.734Z,100029.00
2019-01-24T03:29:52.154Z,100041.00
2019-01-24T03:32:22.660Z,100054.00
2019-01-24T03:34:53.121Z,100047.00
2019-01-24T03:37:23.542Z,100052.00
2019-01-24T03:39:54.612Z,100051.00
2019-01-24T03:42:25.013Z,100048.00
2019-01-24T03:44:55.401Z,100051.00
2019-01-24T03:47:26.172Z,100052.00
2019-01-24T03:50:01.594Z,100057.00
2019-01-24T03:52:32.020Z,100051.00
2019-01-24T03:55:02.814Z,100049.00
2019-01-24T03:57:33.347Z,100058.00
2019-01-24T04:00:04.145Z,100055.00
2019-01-24T04:02:34.538Z,100051.00
2019-01-24T04:05:11.783Z,100045.00
2019-01-24T04:07:38.048Z,100055.00
2019-01-24T04:10:11.765Z,100061.00
2019-01-24T04:12:42.181Z,100055.00
2019-01-24T04:15:16.090Z,100048.00
2019-01-24T04:17:46.586Z,100045.00
2019-01-24T04:20:17.499Z,100052.00
2019-01-24T04:22:47.876Z,100039.00
2019-01-24T04:25:18.631Z,100055.00
2019-01-24T04:27:49.313Z,100048.00
2019-01-24T04:30:23.559Z,100051.00
2019-01-24T04:32:54.058Z,100058.00
2019-01-24T04:35:24.571Z,100060.00
2019-01-24T04:37:55.327Z,100082.00
2019-01-24T04:40:44.836Z,100073.00
2019-01-24T04:43:15.484Z,100067.00
2019-01-24T04:45:45.953Z,100077.00
2019-01-24T04:48:16.314Z,100070.00
2019-01-24T04:50:46.735Z,100069.00
2019-01-24T04:53:17.226Z,100066.00
2019-01-24T04:55:47.661Z,100065.00
2019-01-24T04:58:18.058Z,100077.00
2019-01-24T05:00:48.446Z,100076.00
2019-01-24T05:03:18.822Z,100086.00
2019-01-24T05:05:49.697Z,100090.00
2019-01-24T05:08:20.110Z,100095.00
2019-01-24T05:10:50.462Z,100094.00
2019-01-24T05:13:23.925Z,100105.00
2019-01-24T05:16:13.440Z,100098.00
2019-01-24T05:18:44.987Z,100101.00
2019-01-24T05:21:15.764Z,100101.00
2019-01-24T05:23:46.205Z,100100.00
2019-01-24T05:26:16.595Z,100088.00
2019-01-24T05:28:46.976Z,100098.00
2019-01-24T05:31:17.567Z,100108.00
2019-01-24T05:33:47.957Z,100098.00
2019-01-24T05:36:18.442Z,100104.00
2019-01-24T05:38:48.820Z,100105.00
2019-01-24T05:41:19.547Z,100108.00
2019-01-24T05:43:49.978Z,100112.00
2019-01-24T05:46:20.674Z,100116.00
2019-01-24T05:48:51.042Z,100125.00
2019-01-24T05:51:40.528Z,100124.00
2019-01-24T05:54:11.507Z,100119.00
2019-01-24T05:56:41.783Z,100113.00
2019-01-24T05:59:12.443Z,100123.00
2019-01-24T06:01:43.550Z,100129.00
2019-01-24T06:04:14.295Z,100135.00
2019-01-24T06:06:45.318Z,100128.00
2019-01-24T06:09:16.091Z,100128.00
2019-01-24T06:11:46.792Z,100137.00
2019-01-24T06:14:17.170Z,100144.00
2019-01-24T06:16:57.634Z,100138.00
2019-01-24T06:19:28.818Z,100141.00
2019-01-24T06:22:00.649Z,100151.00
2019-01-24T06:24:31.002Z,100147.00
2019-01-24T06:27:01.405Z,100150.00
2019-01-24T06:29:31.849Z,100160.00
2019-01-24T06:32:02.314Z,100159.00
2019-01-24T06:34:33.343Z,100156.00
2019-01-24T06:37:03.713Z,100148.00
2019-01-24T06:39:34.356Z,100159.00
2019-01-24T06:42:04.723Z,100170.00
2019-01-24T06:44:35.156Z,100183.00
2019-01-24T06:47:05.597Z,100167.00
2019-01-24T06:49:36.263Z,100194.00
2019-01-24T06:52:07.334Z,100194.00
2019-01-24T06:54:38.078Z,100195.00
2019-01-24T06:57:08.796Z,100203.00
2019-01-24T06:59:39.268Z,100194.00
2019-01-24T07:02:09.591Z,100218.00
2019-01-24T07:04:39.983Z,100203.00
2019-01-24T07:07:10.384Z,100218.00
2019-01-24T07:09:40.769Z,100213.00
2019-01-24T07:12:11.196Z,100209.00
2019-01-24T07:14:41.827Z,100213.00
2019-01-24T07:17:12.529Z,100212.00
2019-01-24T07:19:42.891Z,100204.00
2019-01-24T07:22:13.301Z,100207.00
2019-01-24T07:24:43.763Z,100204.00
2019-01-24T07:27:33.202Z,100213.00
2019-01-24T07:30:03.705Z,100221.00
2019-01-24T07:32:34.138Z,100212.00
2019-01-24T07:35:05.242Z,100213.00
2019-01-24T07:37:35.639Z,100227.00
2019-01-24T07:40:07.227Z,100232.00
2019-01-24T07:42:37.693Z,100236.00
2019-01-24T07:45:15.688Z,100242.00
2019-01-24T07:47:46.110Z,100246.00
2019-01-24T07:50:16.686Z,100244.00
2019-01-24T07:52:47.076Z,100247.00
2019-01-24T07:55:17.871Z,100248.00
2019-01-24T07:57:48.231Z,100256.00
2019-01-24T08:00:25.007Z,100253.00
2019-01-24T08:02:55.699Z,100261.00
2019-01-24T08:05:27.038Z,100251.00
2019-01-24T08:07:57.451Z,100263.00
2019-01-24T08:10:28.157Z,100260.00
2019-01-24T08:12:58.605Z,100272.00
2019-01-24T08:15:29.992Z,100273.00
2019-01-24T08:18:00.941Z,100266.00
2019-01-24T08:20:31.603Z,100276.00
2019-01-24T08:23:02.044Z,100284.00
2019-01-24T08:25:32.436Z,100279.00
2019-01-24T08:28:02.912Z,100281.00
2019-01-24T08:30:34.984Z,100280.00
2019-01-24T08:33:05.701Z,100266.00
2019-01-24T08:35:36.099Z,100271.00
2019-01-24T08:38:07.303Z,100283.00
2019-01-24T08:40:37.756Z,100280.00
2019-01-24T08:43:08.137Z,100288.00
2019-01-24T08:45:46.010Z,100291.00
2019-01-24T08:48:16.399Z,100309.00
2019-01-24T08:50:47.138Z,100291.00
2019-01-24T08:53:17.784Z,100295.00
2019-01-24T08:55:48.175Z,100292.00
2019-01-24T08:58:18.518Z,100301.00
2019-01-24T09:00:48.933Z,100300.00
2019-01-24T09:03:19.923Z,100296.00
2019-01-24T09:05:50.435Z,100297.00
2019-01-24T09:08:21.212Z,100299.00
2019-01-24T09:10:51.945Z,100290.00
2019-01-24T09:13:22.475Z,100301.00
2019-01-24T09:15:52.809Z,100307.00
2019-01-24T09:18:23.312Z,100313.00
2019-01-24T09:20:53.711Z,100317.00
2019-01-24T09:23:24.110Z,100308.00
2019-01-24T09:25:54.492Z,100317.00
2019-01-24T09:28:25.760Z,100331.00
2019-01-24T09:30:56.145Z,100335.00
2019-01-24T09:33:26.507Z,100335.00
2019-01-24T09:35:56.914Z,100326.00
2019-01-24T09:38:27.341Z,100333.00
2019-01-24T09:40:58.195Z,100337.00
2019-01-24T09:43:28.597Z,100339.00
2019-01-24T09:45:59.110Z,100347.00
2019-01-24T09:48:29.760Z,100337.00
2019-01-24T09:51:00.183Z,100335.00
2019-01-24T09:53:31.040Z,100337.00
2019-01-24T09:56:01.456Z,100339.00
2019-01-24T09:58:32.410Z,100336.00
2019-01-24T10:01:03.101Z,100354.00
2019-01-24T10:03:33.469Z,100341.00
2019-01-24T10:06:03.879Z,100332.00
2019-01-24T10:08:34.242Z,100343.00
2019-01-24T10:11:04.631Z,100343.00
2019-01-24T10:13:35.086Z,100343.00
2019-01-24T10:16:05.530Z,100336.00
2019-01-24T10:18:36.297Z,100343.00
2019-01-24T10:21:06.667Z,100346.00
2019-01-24T10:23:37.173Z,100343.00
2019-01-24T10:26:07.613Z,100342.00
2019-01-24T10:28:37.988Z,100341.00
2019-01-24T10:31:08.657Z,100334.00
2019-01-24T10:33:39.020Z,100335.00
2019-01-24T10:36:09.558Z,100331.00
2019-01-24T10:38:40.192Z,100325.00
2019-01-24T10:41:10.973Z,100339.00
2019-01-24T10:43:41.435Z,100335.00
2019-01-24T10:46:11.789Z,100335.00
2019-01-24T10:48:42.176Z,100330.00
2019-01-24T10:51:13.455Z,100338.00
2019-01-24T10:53:43.906Z,100341.00
2019-01-24T10:56:14.279Z,100322.00
2019-01-24T10:58:44.683Z,100326.00
2019-01-24T11:01:15.086Z,100315.00
2019-01-24T11:03:45.477Z,100310.00
2019-01-24T11:06:15.879Z,100320.00
2019-01-24T11:08:46.267Z,100307.00
2019-01-24T11:11:16.625Z,100319.00
2019-01-24T11:13:47.014Z,100312.00
2019-01-24T11:16:17.437Z,100312.00
2019-01-24T11:18:48.083Z,100317.00
2019-01-24T11:21:18.504Z,100305.00
2019-01-24T11:23:49.203Z,100318.00
2019-01-24T11:26:19.526Z,100294.00
2019-01-24T11:28:49.858Z,100297.00
2019-01-24T11:31:20.208Z,100301.00
2019-01-24T11:33:50.657Z,100303.00
2019-01-24T11:36:21.042Z,100306.00
2019-01-24T11:38:51.749Z,100296.00
2019-01-24T11:41:22.133Z,100308.00
2019-01-24T11:43:52.524Z,100297.00
2019-01-24T11:46:23.244Z,100301.00
2019-01-24T11:48:53.988Z,100308.00
2019-01-24T11:51:24.413Z,100294.00
2019-01-24T11:53:54.864Z,100300.00
2019-01-24T11:56:25.230Z,100293.00
2019-01-24T11:58:55.658Z,100292.00
2019-01-24T12:01:26.205Z,100294.00
2019-01-24T12:03:56.697Z,100302.00
2019-01-24T12:06:27.107Z,100307.00
2019-01-24T12:08:57.505Z,100305.00
2019-01-24T12:11:28.447Z,100300.00
2019-01-24T12:13:59.106Z,100305.00
2019-01-24T12:16:35.842Z,100305.00
2019-01-24T12:19:06.594Z,100313.00
2019-01-24T12:21:37.316Z,100320.00
2019-01-24T12:24:07.713Z,100307.00
2019-01-24T12:26:39.056Z,100322.00
2019-01-24T12:29:09.408Z,100319.00
2019-01-24T12:31:40.217Z,100319.00
2019-01-24T12:34:10.650Z,100338.00
2019-01-24T12:36:41.105Z,100335.00
2019-01-24T12:39:11.704Z,100335.00
2019-01-24T12:41:42.487Z,100331.00
2019-01-24T12:44:12.867Z,100341.00
2019-01-24T12:46:43.560Z,100338.00
2019-01-24T12:49:14.198Z,100345.00
2019-01-24T12:51:44.888Z,100343.00
2019-01-24T12:54:15.572Z,100349.00
2019-01-24T12:56:46.002Z,100345.00
2019-01-24T12:59:16.692Z,100340.00
2019-01-24T13:01:47.860Z,100339.00
2019-01-24T13:04:18.368Z,100349.00
2019-01-24T13:06:49.021Z,100340.00
2019-01-24T13:09:19.387Z,100342.00
2019-01-24T13:11:50.179Z,100344.00
2019-01-24T13:14:20.656Z,100340.00
2019-01-24T13:16:51.063Z,100337.00
2019-01-24T13:19:21.534Z,100326.00
2019-01-24T13:21:52.926Z,100343.00
2019-01-24T13:24:25.392Z,100341.00
2019-01-24T13:26:55.840Z,100334.00
2019-01-24T13:29:26.283Z,100338.00
2019-01-24T13:31:57.245Z,100335.00
2019-01-24T13:34:27.580Z,100324.00
2019-01-24T13:37:00.381Z,100333.00
2019-01-24T13:39:30.747Z,100333.00
2019-01-24T13:42:01.199Z,100330.00
2019-01-24T13:44:31.645Z,100338.00
2019-01-24T13:47:02.056Z,100334.00
2019-01-24T13:49:32.826Z,100336.00
2019-01-24T13:52:07.852Z,100335.00
2019-01-24T13:54:38.920Z,100339.00
2019-01-24T13:57:09.705Z,100335.00
2019-01-24T13:59:40.192Z,100343.00
2019-01-24T14:02:10.602Z,100348.00
2019-01-24T14:04:48.251Z,100341.00
2019-01-24T14:07:18.620Z,100342.00
2019-01-24T14:09:48.979Z,100340.00
2019-01-24T14:12:19.354Z,100349.00
2019-01-24T14:14:49.858Z,100346.00
2019-01-24T14:17:20.240Z,100347.00
2019-01-24T14:19:50.954Z,100364.00
2019-01-24T14:22:41.194Z,100349.00
2019-01-24T14:25:15.530Z,100360.00
2019-01-24T14:27:46.702Z,100359.00
2019-01-24T14:30:23.118Z,100362.00
2019-01-24T14:32:53.640Z,100362.00
2019-01-24T14:35:24.123Z,100365.00
2019-01-24T14:38:15.614Z,100364.00
2019-01-24T14:40:46.251Z,100363.00
2019-01-24T14:43:16.701Z,100355.00
2019-01-24T14:45:47.122Z,100364.00
2019-01-24T14:48:17.627Z,100364.00
2019-01-24T14:50:50.465Z,100372.00
2019-01-24T14:53:22.972Z,100369.00
2019-01-24T14:55:53.365Z,100375.00
2019-01-24T14:58:23.769Z,100375.00
2019-01-24T15:01:19.112Z,100364.00
2019-01-24T15:04:08.167Z,100381.00
2019-01-24T15:06:38.592Z,100384.00
2019-01-24T15:09:10.760Z,100386.00
2019-01-24T15:11:41.121Z,100390.00
2019-01-24T15:14:13.017Z,100386.00
2019-01-24T15:16:43.468Z,100384.00
2019-01-24T15:19:13.857Z,100398.00
2019-01-24T15:21:44.236Z,100380.00
2019-01-24T15:24:15.166Z,100391.00
2019-01-24T15:26:54.644Z,100390.00
2019-01-24T15:29:25.572Z,100388.00
2019-01-24T15:31:55.911Z,100391.00
2019-01-24T15:34:26.588Z,100397.00
2019-01-24T15:36:57.125Z,100390.00
2019-01-24T15:39:27.520Z,100407.00
2019-01-24T15:41:58.069Z,100422.00
2019-01-24T15:44:29.362Z,100407.00
2019-01-24T15:47:00.203Z,100413.00
2019-01-24T15:49:30.605Z,100405.00
2019-01-24T15:52:01.007Z,100405.00
2019-01-24T15:54:31.716Z,100397.00
2019-01-24T15:57:02.162Z,100406.00
2019-01-24T15:59:32.539Z,100414.00
2019-01-24T16:02:02.906Z,100406.00
2019-01-24T16:04:33.668Z,100422.00
2019-01-24T16:07:04.078Z,100421.00
2019-01-24T16:09:34.429Z,100421.00
2019-01-24T16:12:04.830Z,100432.00
2019-01-24T16:14:35.259Z,100435.00
2019-01-24T16:17:05.862Z,100436.00
2019-01-24T16:19:36.563Z,100436.00
2019-01-24T16:22:07.167Z,100445.00
2019-01-24T16:24:37.576Z,100447.00
2019-01-24T16:27:08.545Z,100442.00
2019-01-24T16:29:39.255Z,100446.00
2019-01-24T16:32:10.012Z,100447.00
2019-01-24T16:34:40.372Z,100443.00
2019-01-24T16:37:10.755Z,100455.00
2019-01-24T16:39:41.929Z,100452.00
2019-01-24T16:42:12.333Z,100461.00
2019-01-24T16:44:42.689Z,100459.00
2019-01-24T16:47:13.084Z,100462.00
2019-01-24T16:49:43.517Z,100469.00
2019-01-24T16:52:14.083Z,100470.00
2019-01-24T16:54:44.508Z,100461.00
2019-01-24T16:57:23.427Z,100467.00
2019-01-24T16:59:53.858Z,100473.00
2019-01-24T17:02:24.351Z,100463.00
2019-01-24T17:04:55.101Z,100469.00
2019-01-24T17:07:25.627Z,100460.00
2019-01-24T17:09:55.996Z,100461.00
2019-01-24T17:12:26.425Z,100474.00
2019-01-24T17:14:56.876Z,100473.00
2019-01-24T17:17:27.406Z,100469.00
2019-01-24T17:19:57.838Z,100477.00
2019-01-24T17:22:34.084Z,100476.00
2019-01-24T17:25:04.925Z,100489.00
2019-01-24T17:27:35.522Z,100483.00
2019-01-24T17:30:08.612Z,100490.00
2019-01-24T17:32:40.217Z,100506.00
2019-01-24T17:35:10.829Z,100494.00
2019-01-24T17:37:41.319Z,100500.00
2019-01-24T17:40:20.185Z,100495.00
2019-01-24T17:42:51.740Z,100507.00
2019-01-24T17:45:22.166Z,100514.00
2019-01-24T17:47:52.818Z,100512.00
2019-01-24T17:50:23.391Z,100519.00
2019-01-24T17:52:53.864Z,100513.00
2019-01-24T17:55:35.565Z,100525.00
2019-01-24T17:58:08.951Z,100525.00
2019-01-24T18:00:42.595Z,100519.00
2019-01-24T18:03:15.024Z,100526.00
2019-01-24T18:05:45.643Z,100540.00
2019-01-24T18:08:16.098Z,100533.00
2019-01-24T18:10:47.353Z,100539.00
2019-01-24T18:13:17.730Z,100543.00
2019-01-24T18:15:48.525Z,100532.00
2019-01-24T18:18:19.044Z,100527.00
2019-01-24T18:20:49.398Z,100540.00
2019-01-24T18:23:19.998Z,100529.00
2019-01-24T18:25:50.508Z,100533.00
2019-01-24T18:28:23.998Z,100527.00
2019-01-24T18:30:54.371Z,100537.00
2019-01-24T18:33:43.827Z,100528.00
2019-01-24T18:36:14.587Z,100526.00
2019-01-24T18:38:45.320Z,100540.00
2019-01-24T18:41:16.114Z,100547.00
2019-01-24T18:43:52.570Z,100544.00
2019-01-24T18:46:22.926Z,100545.00
2019-01-24T18:48:53.751Z,100555.00
2019-01-24T18:51:24.150Z,100553.00
2019-01-24T18:53:54.548Z,100558.00
2019-01-24T18:56:25.043Z,100553.00
2019-01-24T18:58:55.413Z,100559.00
2019-01-24T19:01:25.813Z,100560.00
2019-01-24T19:03:56.531Z,100569.00
2019-01-24T19:06:26.947Z,100568.00
2019-01-24T19:08:57.336Z,100572.00
2019-01-24T19:11:28.056Z,100575.00
2019-01-24T19:13:58.488Z,100591.00
2019-01-24T19:16:28.876Z,100582.00
2019-01-24T19:18:59.718Z,100595.00
2019-01-24T19:21:30.871Z,100599.00
2019-01-24T19:24:01.542Z,100594.00
2019-01-24T19:26:31.909Z,100596.00
2019-01-24T19:29:02.284Z,100600.00
2019-01-24T19:31:32.686Z,100606.00
2019-01-24T19:34:07.244Z,100599.00
2019-01-24T19:36:37.836Z,100601.00
2019-01-24T19:39:10.336Z,100604.00
2019-01-24T19:41:40.691Z,100592.00
2019-01-24T19:44:15.638Z,100590.00
2019-01-24T19:46:43.250Z,100596.00
2019-01-24T19:49:13.611Z,100582.00
2019-01-24T19:51:44.045Z,100593.00
2019-01-24T19:54:15.320Z,100597.00
2019-01-24T19:56:51.553Z,100596.00
2019-01-24T19:59:21.958Z,100600.00
2019-01-24T20:01:52.349Z,100580.00
2019-01-24T20:04:22.696Z,100582.00
2019-01-24T20:06:53.102Z,100588.00
2019-01-24T20:09:23.589Z,100593.00
2019-01-24T20:11:54.003Z,100600.00
2019-01-24T20:14:27.326Z,100597.00
2019-01-24T20:17:17.066Z,100595.00
2019-01-24T20:19:48.274Z,100601.00
2019-01-24T20:22:18.711Z,100595.00
2019-01-24T20:24:58.435Z,100600.00
2019-01-24T20:27:33.379Z,100610.00
2019-01-24T20:30:03.996Z,100608.00
2019-01-24T20:32:43.736Z,100601.00
2019-01-24T20:35:18.892Z,100604.00
2019-01-24T20:37:51.477Z,100603.00
2019-01-24T20:40:22.438Z,100598.00
2019-01-24T20:42:53.181Z,100600.00
2019-01-24T20:45:24.221Z,100600.00
2019-01-24T20:47:54.614Z,100592.00
2019-01-24T20:50:25.481Z,100605.00
2019-01-24T20:52:56.222Z,100593.00
2019-01-24T20:55:28.647Z,100597.00
2019-01-24T20:57:59.071Z,100604.00
2019-01-24T21:00:29.621Z,100590.00
2019-01-24T21:02:59.980Z,100588.00
2019-01-24T21:05:31.418Z,100604.00
2019-01-24T21:08:02.211Z,100608.00
2019-01-24T21:10:38.735Z,100606.00
2019-01-24T21:13:09.169Z,100604.00
2019-01-24T21:15:51.313Z,100605.00
2019-01-24T21:18:22.117Z,100613.00
2019-01-24T21:20:58.803Z,100612.00
2019-01-24T21:23:29.855Z,100608.00
2019-01-24T21:26:00.276Z,100613.00
2019-01-24T21:28:30.667Z,100622.00
2019-01-24T21:31:01.412Z,100620.00
2019-01-24T21:33:32.820Z,100613.00
2019-01-24T21:36:03.254Z,100611.00
2019-01-24T21:38:35.921Z,100614.00
2019-01-24T21:41:24.761Z,100620.00
2019-01-24T21:43:55.182Z,100618.00
2019-01-24T21:46:25.569Z,100618.00
2019-01-24T21:48:55.998Z,100620.00
2019-01-24T21:51:26.933Z,100629.00
2019-01-24T21:53:57.353Z,100626.00
2019-01-24T21:56:27.756Z,100623.00
2019-01-24T21:58:58.516Z,100634.00
2019-01-24T22:01:28.943Z,100624.00
2019-01-24T22:03:59.370Z,100629.00
2019-01-24T22:06:30.231Z,100629.00
2019-01-24T22:09:00.771Z,100620.00
2019-01-24T22:11:31.310Z,100611.00
2019-01-24T22:14:02.161Z,100616.00
2019-01-24T22:16:32.724Z,100612.00
2019-01-24T22:19:03.784Z,100626.00
2019-01-24T22:21:34.656Z,100620.00
2019-01-24T22:24:05.554Z,100622.00
2019-01-24T22:26:36.095Z,100632.00
2019-01-24T22:29:06.852Z,100623.00
2019-01-24T22:31:37.310Z,100628.00
2019-01-24T22:34:07.768Z,100637.00
2019-01-24T22:36:38.309Z,100634.00
2019-01-24T22:39:10.889Z,100641.00
2019-01-24T22:41:41.421Z,100647.00
2019-01-24T22:44:11.954Z,100650.00
2019-01-24T22:46:42.542Z,100645.00
2019-01-24T22:49:13.072Z,100647.00
2019-01-24T22:51:43.942Z,100630.00
2019-01-24T22:54:14.434Z,100639.00
2019-01-24T22:56:44.929Z,100634.00
2019-01-24T22:59:15.454Z,100634.00
2019-01-24T23:02:02.191Z,100639.00
2019-01-24T23:04:32.745Z,100633.00
2019-01-24T23:07:03.252Z,100631.00
2019-01-24T23:09:33.705Z,100620.00
2019-01-24T23:12:06.695Z,100632.00
2019-01-24T23:14:37.481Z,100647.00
2019-01-24T23:17:08.619Z,100651.00
2019-01-24T23:19:39.123Z,100639.00
2019-01-24T23:22:09.707Z,100651.00
2019-01-24T23:24:40.224Z,100643.00
2019-01-24T23:27:29.801Z,100639.00
2019-01-24T23:30:00.283Z,100648.00
2019-01-24T23:32:31.149Z,100644.00
2019-01-24T23:35:02.100Z,100655.00
2019-01-24T23:37:32.677Z,100656.00
2019-01-24T23:40:03.332Z,100652.00
2019-01-24T23:42:34.148Z,100641.00
2019-01-24T23:45:06.026Z,100645.00
2019-01-24T23:47:37.016Z,100645.00
2019-01-24T23:50:07.937Z,100654.00
2019-01-24T23:52:38.458Z,100658.00
2019-01-24T23:55:09.475Z,100665.00
2019-01-24T23:57:40.526Z,100654.00
